ADDS METAR Data INFO
IDs: Format: Raw Decoded Include TAF

Data at: 0058 UTC 22 Oct 2017

KGFK 220053Z 25014G22KT 10SM OVC070 12/06 A2961 RMK AO2 SLP030 T01220061
KGFK 212353Z 24014KT 10SM SCT065 BKN080 BKN100 13/06 A2958 RMK AO2 SLP020 60000 T01280061 10189 20128 51028
KGFK 212253Z 26012KT 10SM FEW060 BKN075 OVC090 14/07 A2956 RMK AO2 SLP009 T01390067
KGFK 212153Z 28014G21KT 10SM FEW060 OVC090 14/06 A2954 RMK AO2 PK WND 27027/2054 RAE00 SLP003 P0000 T01390061
KGFK 212053Z 28019G27KT 10SM -RA SCT055 BKN085 BKN200 16/08 A2950 RMK AO2 PK WND 27030/2003 RAB41 SLP989 P0000 60000 T01610078 53010
KGFK 211953Z 28019G27KT 10SM SCT050 BKN085 BKN200 18/06 A2946 RMK AO2 PK WND 28029/1935 SLP976 T01780061
KGFK 211853Z 27013KT 10SM FEW030 BKN250 19/06 A2945 RMK AO2 SLP971 T01890061
KGFK 211753Z 26010KT 10SM FEW020 SCT250 17/06 A2947 RMK AO2 SLP979 T01720061 10178 20156 51015
KGFK 211653Z 25009G20KT 10SM FEW030 SCT120 BKN250 17/06 A2947 RMK AO2 SLP978 T01720061
KGFK 211553Z 23011KT 9SM SCT110 BKN250 17/05 A2944 RMK AO2 SLP968 T01670050
KGFK 211453Z 23007KT 10SM SCT120 BKN250 17/06 A2942 RMK AO2 PRESRR SLP963 T01670061 53029
KGFK 211353Z 21010KT 10SM FEW030 BKN250 16/14 A2939 RMK AO2 SLP950 T01610139
KGFK 211253Z 20014G21KT 10SM FEW030 SCT250 17/14 A2936 RMK AO2 PK WND 18026/1219 SLP941 T01670144
KGFK 211153Z 18017G28KT 10SM CLR 18/14 A2934 RMK AO2 PK WND 18028/1150 SLP932 T01780144 10206 20172 53006
KGFK 211053Z 17014KT 10SM CLR 18/15 A2933 RMK AO2 PK WND 17028/0954 SLP928 T01830150
KGFK 210953Z AUTO 16019G27KT 10SM CLR 19/15 A2932 RMK AO2 PK WND 16029/0906 SLP925 T01890150
KGFK 210853Z AUTO 17016G27KT 10SM CLR 19/15 A2932 RMK AO2 PK WND 16029/0830 SLP924 T01940150 58012
KGFK 210753Z AUTO 17017G26KT 10SM CLR 19/14 A2933 RMK AO2 PK WND 16028/0723 SLP929 T01940144
KGFK 210653Z AUTO 16016G28KT 10SM CLR 20/14 A2935 RMK AO2 PK WND 16028/0639 SLP934 T02000144
KGFK 210553Z AUTO 17016G27KT 10SM CLR 20/14 A2936 RMK AO2 PK WND 18028/0543 SLP938 T02000139 10228 20200 402610072 58003
KGFK 210453Z AUTO 17018G27KT 10SM CLR 21/13 A2936 RMK AO2 PK WND 18029/0408 SLP939 T02060133
KGFK 210430Z 17016G28KT 10SM SCT250 21/13 A2936 RMK AO2 PK WND 18029/0408 LAST T02060133
KGFK 210353Z 17015G27KT 10SM SCT230 21/13 A2937 RMK AO2 PK WND 18033/0326 SLP943 T02110133
KGFK 210253Z 17018G34KT 10SM BKN220 21/13 A2937 RMK AO2 PK WND 17034/0245 SLP943 T02110128 53003
KGFK 210153Z 17019G33KT 10SM SCT200 BKN250 22/13 A2936 RMK AO2 PK WND 18033/0147 SLP942 T02170128
KGFK 210053Z 17017G26KT 10SM SCT200 BKN240 22/13 A2936 RMK AO2 PK WND 18026/0033 SLP942 T02220128
KGFK 202353Z 16015G23KT 10SM BKN200 BKN250 23/13 A2936 RMK AO2 PK WND 17027/2308 SLP941 T02280128 10261 20228 58008
KGFK 202253Z 18017G30KT 10SM SCT200 BKN250 24/12 A2937 RMK AO2 PK WND 18038/2215 SLP946 T02390122
KGFK 202153Z 18025G35KT 10SM SCT250 BKN300 24/12 A2938 RMK AO2 PK WND 18035/2122 SLP948 T02440117
KGFK 202053Z 17023G35KT 10SM BKN250 26/12 A2938 RMK AO2 PK WND 16035/2048 SLP950 T02560117 56029
KGFK 201953Z 18024G32KT 10SM SCT250 26/12 A2941 RMK AO2 PK WND 17033/1933 SLP958 T02560117
KGFK 201853Z 17021G30KT 10SM SCT250 24/11 A2943 RMK AO2 PK WND 19031/1808 SLP967 T02440111
KGFK 201753Z 19020G29KT 10SM FEW250 23/11 A2947 RMK AO2 PK WND 18029/1751 SLP980 T02330106 10233 20100 56023
KGFK 201653Z 18020G28KT 10SM FEW250 22/11 A2949 RMK AO2 PK WND 18033/1621 SLP988 T02170106
KGFK 201553Z 18020G29KT 10SM FEW200 SCT250 18/11 A2951 RMK AO2 PK WND 18029/1553 SLP995 T01830106
KGFK 201453Z 16016KT 10SM FEW200 FEW250 15/10 A2954 RMK AO2 SLP005 T01500100 58018
KGFK 201353Z 16012KT 10SM FEW250 12/09 A2956 RMK AO2 SLP013 T01170089